Time;durP1;ratioP1;P1;durP2;ratioP2;P2;SDS_P1;SDS_P2;PMS_P1;PMS_P2;Temp;Humidity;BMP_temperature;BMP_pressure;BME280_temperature;BME280_humidity;BME280_pressure;Samples;Min_cycle;Max_cycle;Signal;HPM_P1;HPM_P2
2021/09/09 00:00:12;;;;;;;12.52;7.47;;;;;;;14.37;70.03;100763.16;5113334;28;20040;-76
2021/09/09 00:02:42;;;;;;;14.63;7.60;;;;;;;14.38;70.02;100767.56;5112996;28;20036;-79
2021/09/09 00:05:13;;;;;;;13.15;7.03;;;;;;;14.35;70.40;100765.09;5113167;28;20542;-80
2021/09/09 00:07:42;;;;;;;15.93;8.40;;;;;;;14.26;70.96;100762.06;5112796;28;20078;-84
2021/09/09 00:10:12;;;;;;;15.82;8.38;;;;;;;14.30;70.80;100768.97;5113335;28;20081;-79
2021/09/09 00:12:41;;;;;;;14.60;7.75;;;;;;;14.19;71.25;100763.47;5113139;28;20044;-76
2021/09/09 00:15:10;;;;;;;17.27;7.88;;;;;;;14.22;70.73;100762.41;5112995;28;20044;-76
2021/09/09 00:17:40;;;;;;;14.02;7.25;;;;;;;14.16;70.63;100760.13;5112849;28;20047;-75
2021/09/09 00:20:13;;;;;;;12.15;6.70;;;;;;;14.33;69.71;100762.53;5112864;28;20127;-76
2021/09/09 00:22:42;;;;;;;12.23;7.15;;;;;;;14.20;70.01;100767.88;5095010;28;20071;-76
2021/09/09 00:25:11;;;;;;;12.88;7.80;;;;;;;13.99;70.06;100763.91;5112638;28;20096;-76
2021/09/09 00:27:40;;;;;;;12.05;7.95;;;;;;;13.92;70.74;100771.53;5112746;28;20122;-76
2021/09/09 00:30:14;;;;;;;11.70;7.68;;;;;;;13.83;70.72;100772.13;5113015;28;20036;-76
2021/09/09 00:32:43;;;;;;;16.10;8.20;;;;;;;13.79;70.65;100778.63;5112743;28;20486;-78
2021/09/09 00:35:12;;;;;;;15.02;7.88;;;;;;;13.67;71.84;100792.84;5112857;28;20406;-81
2021/09/09 00:37:41;;;;;;;13.05;7.30;;;;;;;13.63;72.51;100789.50;5112836;28;20035;-81
2021/09/09 00:40:10;;;;;;;14.77;7.25;;;;;;;13.77;72.33;100790.44;5113117;28;20047;-78
2021/09/09 00:42:42;;;;;;;17.35;8.70;;;;;;;13.74;72.43;100797.72;5112877;28;20067;-78
2021/09/09 00:45:12;;;;;;;12.77;7.30;;;;;;;13.72;72.75;100788.91;5112662;28;20050;-76
2021/09/09 00:47:44;;;;;;;13.40;7.82;;;;;;;13.66;72.66;100797.34;5112775;28;20044;-74
2021/09/09 00:50:14;;;;;;;12.80;7.95;;;;;;;13.69;72.87;100788.22;5115071;28;20122;-75
2021/09/09 00:52:47;;;;;;;14.45;8.15;;;;;;;13.69;72.85;100789.09;5116502;28;20071;-75
2021/09/09 00:55:15;;;;;;;22.45;14.07;;;;;;;13.64;73.01;100795.72;5116601;28;20036;-74
2021/09/09 00:57:44;;;;;;;17.73;10.20;;;;;;;13.65;73.03;100784.91;5115900;28;20478;-77
2021/09/09 01:00:14;;;;;;;16.83;8.18;;;;;;;13.73;72.01;100790.63;5116202;28;20083;-79
2021/09/09 01:02:44;;;;;;;21.55;8.13;;;;;;;13.94;72.25;100777.66;5116420;28;20139;-80
2021/09/09 01:05:14;;;;;;;13.25;7.55;;;;;;;13.86;71.34;100779.97;5116075;28;20402;-80
2021/09/09 01:07:43;;;;;;;14.55;8.02;;;;;;;13.88;72.24;100782.53;5115966;28;20046;-78
2021/09/09 01:10:11;;;;;;;11.27;6.90;;;;;;;14.12;69.05;100780.94;5116212;28;20040;-78
2021/09/09 01:12:40;;;;;;;15.48;8.45;;;;;;;14.23;69.80;100772.16;5115918;28;20044;-78
2021/09/09 01:15:10;;;;;;;11.55;7.70;;;;;;;14.23;68.87;100775.72;5115453;28;20122;-78
2021/09/09 01:17:40;;;;;;;11.85;7.15;;;;;;;14.38;67.77;100767.56;5116069;28;20051;-78
2021/09/09 01:20:09;;;;;;;13.82;7.05;;;;;;;14.42;67.29;100775.31;5115593;28;20035;-78
2021/09/09 01:22:40;;;;;;;13.07;7.78;;;;;;;14.36;67.70;100772.19;5115850;28;20418;-78
2021/09/09 01:25:11;;;;;;;16.08;7.55;;;;;;;14.27;68.16;100773.66;5115287;28;20412;-79
2021/09/09 01:27:40;;;;;;;12.88;7.57;;;;;;;14.11;68.70;100768.50;5115820;28;20123;-79
2021/09/09 01:30:09;;;;;;;13.43;7.78;;;;;;;14.08;68.90;100771.34;5115416;28;20043;-79
2021/09/09 01:32:37;;;;;;;13.25;7.90;;;;;;;14.08;68.92;100773.19;5115435;28;20051;-78
2021/09/09 01:35:06;;;;;;;12.02;7.78;;;;;;;14.08;69.27;100774.03;5115173;28;20070;-78
2021/09/09 01:37:35;;;;;;;14.77;7.78;;;;;;;14.09;69.12;100781.16;5115305;28;20100;-75
2021/09/09 01:40:05;;;;;;;11.43;7.50;;;;;;;13.99;69.70;100769.28;5115274;28;20085;-75
2021/09/09 01:42:35;;;;;;;11.73;7.57;;;;;;;13.88;70.49;100771.81;5115358;28;20040;-78
2021/09/09 01:45:04;;;;;;;13.65;8.13;;;;;;;13.67;71.48;100768.72;5114897;28;20043;-78
2021/09/09 01:47:32;;;;;;;13.65;7.88;;;;;;;13.80;71.15;100766.97;5115235;28;20496;-76
2021/09/09 01:50:07;;;;;;;13.55;8.23;;;;;;;13.68;71.64;100773.97;5096817;28;20478;-77
2021/09/09 01:52:37;;;;;;;11.27;7.40;;;;;;;13.50;72.66;100763.56;5115163;28;20477;-76
2021/09/09 01:55:06;;;;;;;13.90;7.68;;;;;;;13.51;72.67;100768.88;5114598;28;20554;-76
2021/09/09 01:57:37;;;;;;;14.02;6.93;;;;;;;13.60;71.91;100767.38;5114874;28;20043;-76
2021/09/09 02:00:08;;;;;;;11.50;7.07;;;;;;;13.57;70.32;100763.09;5114286;28;20044;-75
2021/09/09 02:02:37;;;;;;;12.48;7.65;;;;;;;13.53;71.26;100760.72;5115099;28;20043;-75
2021/09/09 02:05:06;;;;;;;13.70;7.53;;;;;;;13.52;71.29;100754.50;5114358;28;20401;-76
2021/09/09 02:07:34;;;;;;;12.70;7.65;;;;;;;13.45;72.08;100750.50;5114805;28;20043;-75
2021/09/09 02:10:03;;;;;;;13.40;7.80;;;;;;;13.41;71.85;100756.97;5114277;28;20097;-74
2021/09/09 02:12:33;;;;;;;13.98;7.03;;;;;;;13.32;72.38;100749.56;5114771;28;20043;-75
2021/09/09 02:15:04;;;;;;;15.13;7.90;;;;;;;13.15;73.19;100746.09;5114267;28;20044;-80
2021/09/09 02:17:32;;;;;;;13.80;7.80;;;;;;;13.20;72.99;100755.66;5114517;28;20043;-80
2021/09/09 02:20:00;;;;;;;13.80;7.13;;;;;;;13.06;73.43;100745.81;5114148;28;20044;-83
2021/09/09 02:22:29;;;;;;;12.95;7.35;;;;;;;13.12;73.27;100753.44;5114674;28;20048;-83
2021/09/09 02:24:57;;;;;;;12.55;7.53;;;;;;;13.03;73.37;100757.56;5092669;28;20056;-84
2021/09/09 02:27:25;;;;;;;12.70;8.05;;;;;;;12.90;74.59;100752.09;5094066;28;20047;-83
2021/09/09 02:30:15;;;;;;;13.95;7.55;;;;;;;12.94;74.85;100763.50;5093714;28;20048;-83
2021/09/09 02:32:44;;;;;;;16.63;7.88;;;;;;;13.06;74.51;100762.72;5094274;28;20044;-77
2021/09/09 02:35:12;;;;;;;14.60;8.52;;;;;;;13.03;74.60;100765.63;5093749;28;20040;-76
2021/09/09 02:37:41;;;;;;;15.68;8.70;;;;;;;12.87;75.25;100767.50;5093599;28;20048;-76
2021/09/09 02:40:12;;;;;;;11.43;7.78;;;;;;;12.73;75.91;100764.78;5093351;28;20487;-77
2021/09/09 02:42:43;;;;;;;13.80;8.32;;;;;;;12.78;75.79;100768.06;5093642;28;20040;-79
2021/09/09 02:45:12;;;;;;;14.18;8.10;;;;;;;12.83;75.40;100771.31;5093361;28;20044;-79
2021/09/09 02:47:42;;;;;;;18.23;9.18;;;;;;;12.72;76.12;100768.44;5093769;28;20048;-78
2021/09/09 02:50:11;;;;;;;15.27;7.93;;;;;;;12.65;76.19;100767.09;5093373;28;20047;-78
2021/09/09 02:52:40;;;;;;;12.05;8.40;;;;;;;12.67;76.03;100765.19;5093623;28;20044;-78
2021/09/09 02:55:09;;;;;;;15.65;8.93;;;;;;;12.57;76.69;100765.75;5093410;28;20075;-78
2021/09/09 02:57:38;;;;;;;13.35;8.25;;;;;;;12.50;77.07;100759.03;5093374;28;20044;-76
2021/09/09 03:00:11;;;;;;;14.48;8.90;;;;;;;12.79;75.84;100753.72;5093091;28;20046;-76
2021/09/09 03:02:40;;;;;;;13.63;7.93;;;;;;;12.94;75.08;100751.94;5093372;28;20036;-76
2021/09/09 03:05:11;;;;;;;14.82;8.07;;;;;;;13.01;74.59;100745.22;5093005;28;20044;-76
2021/09/09 03:07:39;;;;;;;12.88;8.05;;;;;;;12.98;74.53;100742.75;5093351;28;20123;-77
2021/09/09 03:10:09;;;;;;;13.38;8.55;;;;;;;13.11;74.26;100749.03;5092860;28;20046;-77
2021/09/09 03:12:39;;;;;;;13.45;8.20;;;;;;;12.85;75.07;100748.00;5092908;28;20044;-78
2021/09/09 03:15:08;;;;;;;16.92;8.40;;;;;;;12.87;75.01;100752.31;5092945;28;20040;-78
2021/09/09 03:17:39;;;;;;;13.18;8.18;;;;;;;12.67;75.94;100749.13;5093359;28;20443;-79
2021/09/09 03:20:08;;;;;;;13.88;8.52;;;;;;;12.65;76.26;100749.22;5092711;28;20081;-79
2021/09/09 03:22:40;;;;;;;16.48;8.35;;;;;;;12.51;77.22;100750.03;5093621;28;20134;-79
2021/09/09 03:25:09;;;;;;;12.68;8.20;;;;;;;12.47;77.65;100753.88;5111469;28;20059;-78
2021/09/09 03:27:37;;;;;;;16.10;8.68;;;;;;;12.42;77.99;100747.91;5113513;28;20489;-77
2021/09/09 03:30:07;;;;;;;12.32;8.10;;;;;;;12.35;78.57;100749.22;5113298;28;20047;-75
2021/09/09 03:32:36;;;;;;;15.10;8.15;;;;;;;12.41;78.48;100748.88;5113406;28;20041;-76
2021/09/09 03:35:05;;;;;;;13.77;8.65;;;;;;;12.38;78.69;100754.41;5113130;28;20169;-77
2021/09/09 03:37:33;;;;;;;12.45;7.95;;;;;;;12.77;77.18;100753.81;5113428;28;20404;-77
2021/09/09 03:40:03;;;;;;;13.88;8.10;;;;;;;12.81;76.73;100751.81;5113099;28;20048;-77
2021/09/09 03:42:32;;;;;;;15.70;8.43;;;;;;;12.64;77.40;100754.66;5113204;28;20490;-76
2021/09/09 03:45:01;;;;;;;17.08;8.85;;;;;;;12.79;77.09;100753.72;5094708;28;20047;-81
2021/09/09 03:47:30;;;;;;;14.05;8.93;;;;;;;12.56;77.69;100749.78;5113076;28;20047;-80
2021/09/09 03:50:02;;;;;;;14.23;8.43;;;;;;;12.55;77.88;100743.56;5113045;28;20039;-80
2021/09/09 03:52:30;;;;;;;13.05;8.27;;;;;;;12.44;78.04;100751.34;5113032;28;20044;-78
2021/09/09 03:54:58;;;;;;;14.05;8.95;;;;;;;12.47;78.41;100747.66;5112780;28;20542;-79
2021/09/09 03:57:30;;;;;;;13.00;8.27;;;;;;;12.53;77.97;100750.81;5113089;28;20568;-78
2021/09/09 03:59:58;;;;;;;13.65;8.05;;;;;;;12.46;78.24;100749.47;5112486;28;20598;-79
2021/09/09 04:02:26;;;;;;;15.00;8.02;;;;;;;12.35;78.81;100743.88;5113136;28;20123;-78
2021/09/09 04:04:55;;;;;;;16.52;9.10;;;;;;;12.31;78.89;100747.72;5095064;28;20078;-75
2021/09/09 04:07:23;;;;;;;12.52;8.40;;;;;;;12.34;78.61;100742.16;5112908;28;20068;-76
2021/09/09 04:09:51;;;;;;;12.98;8.57;;;;;;;12.13;79.72;100741.63;5112852;28;20039;-77
2021/09/09 04:12:19;;;;;;;15.65;8.75;;;;;;;12.28;78.82;100745.22;5112516;28;20043;-80
2021/09/09 04:14:49;;;;;;;14.27;8.80;;;;;;;12.09;79.66;100752.59;5113211;28;20048;-78
2021/09/09 04:17:17;;;;;;;15.32;8.82;;;;;;;12.10;79.86;100740.97;5112662;28;20036;-78
2021/09/09 04:19:46;;;;;;;16.92;8.70;;;;;;;12.11;80.04;100750.69;5112922;28;20036;-78
2021/09/09 04:22:14;;;;;;;14.23;8.80;;;;;;;12.11;79.79;100756.03;5112548;28;20044;-78
2021/09/09 04:24:42;;;;;;;14.77;9.07;;;;;;;12.00;79.96;100749.50;5116718;28;20048;-78
2021/09/09 04:27:11;;;;;;;14.02;8.30;;;;;;;12.06;80.27;100755.44;5116446;28;20127;-78
2021/09/09 04:29:39;;;;;;;14.90;8.43;;;;;;;12.01;80.31;100751.22;5116723;28;20044;-78
2021/09/09 04:32:09;;;;;;;19.13;9.32;;;;;;;12.01;80.36;100753.91;5098421;28;20047;-78
2021/09/09 04:34:37;;;;;;;17.55;9.38;;;;;;;12.11;80.23;100758.72;5116784;28;20040;-74
2021/09/09 04:37:05;;;;;;;16.58;8.30;;;;;;;12.19;79.95;100753.78;5116057;28;20558;-80
2021/09/09 04:39:37;;;;;;;14.15;8.57;;;;;;;12.18;80.62;100758.28;5116501;28;20036;-82
2021/09/09 04:42:28;;;;;;;17.67;9.07;;;;;;;12.25;80.34;100762.28;5116728;28;20050;-79
2021/09/09 04:44:56;;;;;;;15.30;8.30;;;;;;;12.41;79.93;100759.56;5116478;28;20401;-83
2021/09/09 04:47:26;;;;;;;16.13;8.60;;;;;;;12.50;79.57;100753.69;5116600;28;20541;-78
2021/09/09 04:49:54;;;;;;;13.57;8.40;;;;;;;12.43;79.79;100763.00;5120584;28;20043;-77
2021/09/09 04:52:23;;;;;;;15.30;9.10;;;;;;;12.45;80.00;100760.25;5115651;28;20126;-77
2021/09/09 04:54:51;;;;;;;16.50;8.52;;;;;;;12.54;79.58;100760.56;5116143;28;20370;-75
2021/09/09 04:57:22;;;;;;;17.80;9.18;;;;;;;12.50;79.82;100763.53;5115836;28;20052;-78
2021/09/09 04:59:50;;;;;;;16.50;9.25;;;;;;;12.53;79.97;100763.31;5116280;28;20043;-77
2021/09/09 05:02:24;;;;;;;14.82;8.80;;;;;;;12.60;79.63;100759.34;5115932;28;20067;-76
2021/09/09 05:04:54;;;;;;;18.10;9.07;;;;;;;12.60;79.96;100754.84;5116052;28;20088;-79
2021/09/09 05:07:22;;;;;;;14.27;8.77;;;;;;;12.78;79.13;100765.38;5115495;28;20122;-76
2021/09/09 05:09:54;;;;;;;17.48;9.02;;;;;;;12.79;79.18;100759.94;5115906;28;20039;-75
2021/09/09 05:12:22;;;;;;;15.50;8.80;;;;;;;12.75;79.49;100765.59;5115516;28;20036;-75
2021/09/09 05:14:53;;;;;;;19.42;9.48;;;;;;;12.84;79.60;100757.84;5115914;28;20039;-73
2021/09/09 05:17:22;;;;;;;21.05;9.27;;;;;;;12.80;79.49;100763.47;5115652;28;20039;-73
2021/09/09 05:19:50;;;;;;;13.88;8.73;;;;;;;13.14;78.00;100759.59;5115726;28;20079;-73
2021/09/09 05:22:19;;;;;;;16.42;8.88;;;;;;;13.28;77.26;100756.06;5115513;28;20047;-72
2021/09/09 05:24:48;;;;;;;18.50;8.93;;;;;;;13.32;77.19;100758.47;5115223;28;20056;-72
2021/09/09 05:27:18;;;;;;;16.67;9.65;;;;;;;13.36;77.54;100759.09;5115494;28;20058;-73
2021/09/09 05:29:47;;;;;;;17.17;9.48;;;;;;;13.46;77.04;100770.97;5115912;28;20100;-70
2021/09/09 05:32:17;;;;;;;18.08;8.50;;;;;;;13.66;76.29;100769.69;5115440;28;20471;-70
2021/09/09 05:34:47;;;;;;;18.50;9.25;;;;;;;13.64;76.22;100763.56;5114952;28;20040;-70
2021/09/09 05:37:16;;;;;;;20.05;9.43;;;;;;;13.70;76.21;100763.13;5115266;28;20092;-70
2021/09/09 05:39:46;;;;;;;20.70;9.55;;;;;;;13.82;75.76;100764.19;5115178;28;20462;-70
2021/09/09 05:42:14;;;;;;;18.23;9.25;;;;;;;13.93;75.01;100764.34;5096728;28;20047;-70
2021/09/09 05:44:42;;;;;;;14.75;9.32;;;;;;;13.94;74.23;100758.00;5115250;28;20040;-70
2021/09/09 05:47:11;;;;;;;18.90;9.32;;;;;;;14.16;73.72;100760.13;5115052;28;20052;-75
2021/09/09 05:49:39;;;;;;;17.38;8.98;;;;;;;14.14;74.02;100754.00;5115258;28;20043;-76
2021/09/09 05:52:08;;;;;;;15.65;9.10;;;;;;;14.27;73.38;100763.78;5114340;28;20043;-70
2021/09/09 05:54:36;;;;;;;16.00;8.82;;;;;;;14.56;71.41;100764.53;5115141;28;20512;-71
2021/09/09 05:57:06;;;;;;;15.80;9.43;;;;;;;14.49;72.21;100765.06;5114808;28;20048;-71
2021/09/09 05:59:34;;;;;;;18.30;9.20;;;;;;;14.48;71.98;100768.72;5114712;28;20046;-71
2021/09/09 06:02:13;;;;;;;17.25;9.43;;;;;;;14.73;70.95;100763.38;5115041;28;20482;-71
2021/09/09 06:04:42;;;;;;;15.73;9.23;;;;;;;14.82;70.46;100759.19;5114923;28;20047;-71
2021/09/09 06:07:11;;;;;;;22.45;9.63;;;;;;;15.10;69.51;100761.66;5114694;28;20055;-75
2021/09/09 06:09:42;;;;;;;15.50;9.25;;;;;;;15.19;68.53;100752.09;5114631;28;20127;-75
2021/09/09 06:12:12;;;;;;;15.80;9.80;;;;;;;15.26;68.99;100758.75;5114654;28;20138;-75
2021/09/09 06:14:43;;;;;;;16.98;10.40;;;;;;;15.54;67.82;100752.25;5114592;28;20051;-75
2021/09/09 06:17:11;;;;;;;21.17;9.68;;;;;;;15.62;67.14;100757.06;5113678;28;20101;-77
2021/09/09 06:19:39;;;;;;;16.48;9.38;;;;;;;15.66;66.50;100755.88;5114418;28;20074;-75
2021/09/09 06:22:08;;;;;;;19.00;10.13;;;;;;;15.78;65.71;100754.97;5114453;28;20048;-72
2021/09/09 06:24:38;;;;;;;18.20;9.55;;;;;;;15.82;66.08;100753.75;5114376;28;20047;-72
2021/09/09 06:27:06;;;;;;;21.05;9.35;;;;;;;16.08;63.92;100751.81;5113789;28;20382;-72
2021/09/09 06:29:38;;;;;;;17.13;9.43;;;;;;;16.26;63.66;100750.44;5113839;28;20039;-71
2021/09/09 06:32:07;;;;;;;16.85;9.15;;;;;;;16.32;63.26;100743.75;5113440;28;20136;-72
2021/09/09 06:34:38;;;;;;;17.58;8.43;;;;;;;16.70;62.12;100748.91;5114235;28;20047;-71
2021/09/09 06:37:06;;;;;;;19.83;8.80;;;;;;;17.20;60.02;100745.88;5114019;28;20086;-72
2021/09/09 06:39:34;;;;;;;18.00;8.32;;;;;;;17.27;59.40;100745.25;5113953;28;20093;-71
2021/09/09 06:42:05;;;;;;;14.90;8.30;;;;;;;17.59;58.75;100748.06;5114041;28;20131;-71
2021/09/09 06:44:33;;;;;;;18.13;8.93;;;;;;;18.26;55.98;100749.72;5114185;28;20066;-71
2021/09/09 06:47:03;;;;;;;16.58;8.75;;;;;;;18.59;54.87;100754.09;5113701;28;20047;-71
2021/09/09 06:49:32;;;;;;;19.85;8.68;;;;;;;18.75;53.85;100750.97;5114424;28;20130;-71
2021/09/09 06:52:01;;;;;;;18.17;8.82;;;;;;;18.62;54.34;100751.13;5114229;28;20039;-71
2021/09/09 06:54:29;;;;;;;16.00;8.55;;;;;;;18.72;53.69;100754.78;5113749;28;20048;-71
2021/09/09 06:56:57;;;;;;;14.40;7.88;;;;;;;18.33;54.66;100752.75;5113779;28;20040;-71
2021/09/09 06:59:25;;;;;;;15.25;7.95;;;;;;;18.10;54.56;100750.16;5113830;28;20395;-71
2021/09/09 07:01:53;;;;;;;15.68;8.00;;;;;;;18.04;54.70;100758.75;5113895;28;20071;-73
2021/09/09 07:04:23;;;;;;;14.25;7.78;;;;;;;17.92;54.98;100754.38;5113112;28;20114;-75
2021/09/09 07:06:52;;;;;;;14.98;8.07;;;;;;;17.81;55.65;100757.97;5113761;28;20470;-75
2021/09/09 07:09:20;;;;;;;14.80;7.93;;;;;;;18.01;55.65;100764.41;5113463;28;20043;-78
2021/09/09 07:11:52;;;;;;;16.73;8.10;;;;;;;17.98;55.40;100764.69;5113937;28;20398;-77
2021/09/09 07:14:21;;;;;;;16.45;8.25;;;;;;;18.11;55.80;100759.09;5113179;28;20042;-75
2021/09/09 07:16:50;;;;;;;17.52;7.70;;;;;;;18.18;54.85;100754.91;5113086;28;20067;-74
2021/09/09 07:19:18;;;;;;;18.63;8.60;;;;;;;18.33;54.58;100758.16;5112803;28;20062;-75
2021/09/09 07:21:50;;;;;;;12.00;7.85;;;;;;;18.41;53.82;100761.06;5113397;28;20130;-73
2021/09/09 07:24:19;;;;;;;19.73;7.97;;;;;;;18.57;53.19;100758.78;5110365;28;20062;-74
2021/09/09 07:26:49;;;;;;;17.10;7.95;;;;;;;18.48;54.21;100762.25;5111308;28;20035;-74
2021/09/09 07:29:19;;;;;;;13.50;7.63;;;;;;;18.38;54.45;100755.94;5113336;28;20096;-74
2021/09/09 07:31:47;;;;;;;16.13;7.93;;;;;;;18.39;54.88;100755.78;5110612;28;20496;-71
2021/09/09 07:34:18;;;;;;;14.65;7.47;;;;;;;18.53;53.20;100754.63;5095082;28;20070;-71
2021/09/09 07:36:48;;;;;;;17.30;7.22;;;;;;;18.69;52.74;100755.03;5110512;28;20093;-72
2021/09/09 07:39:16;;;;;;;12.40;7.38;;;;;;;18.74;52.50;100758.22;5113229;28;20431;-74
2021/09/09 07:41:48;;;;;;;16.73;7.13;;;;;;;18.83;52.47;100752.00;5113324;28;20122;-73
2021/09/09 07:44:16;;;;;;;16.23;9.27;;;;;;;19.06;51.79;100762.66;5113656;28;20104;-73
2021/09/09 07:46:44;;;;;;;17.05;10.27;;;;;;;19.24;50.93;100761.03;5113436;28;20047;-73
2021/09/09 07:49:15;;;;;;;21.30;11.90;;;;;;;19.25;50.65;100765.47;5113388;28;20044;-72
2021/09/09 07:51:53;;;;;;;19.65;11.90;;;;;;;19.26;51.51;100763.59;5112540;28;20150;-72
2021/09/09 07:54:21;;;;;;;18.42;11.18;;;;;;;19.34;50.16;100759.22;5113449;28;20065;-72
2021/09/09 07:56:54;;;;;;;23.15;11.32;;;;;;;19.44;50.86;100762.84;5113335;28;20046;-72
2021/09/09 07:59:24;;;;;;;22.80;11.27;;;;;;;19.45;50.74;100763.69;5116242;28;20085;-71
2021/09/09 08:01:54;;;;;;;17.70;11.02;;;;;;;19.36;50.40;100749.13;5117660;28;20040;-71
2021/09/09 08:04:24;;;;;;;18.63;11.23;;;;;;;19.34;51.60;100756.53;5117715;28;20043;-71
2021/09/09 08:06:55;;;;;;;13.85;7.57;;;;;;;19.54;50.64;100753.88;5117327;28;20100;-75
2021/09/09 08:09:24;;;;;;;13.70;7.13;;;;;;;19.68;49.59;100748.97;5117218;28;20466;-75
2021/09/09 08:11:52;;;;;;;13.82;6.07;;;;;;;19.77;48.62;100746.41;5117249;28;20050;-76
2021/09/09 08:14:22;;;;;;;12.48;5.82;;;;;;;20.01;47.54;100745.03;5117419;28;20047;-75
2021/09/09 08:16:50;;;;;;;13.45;5.10;;;;;;;20.15;46.50;100743.75;5117060;28;20043;-71
2021/09/09 08:19:18;;;;;;;9.95;4.80;;;;;;;20.47;44.91;100748.09;5116837;28;20043;-71
2021/09/09 08:21:46;;;;;;;7.53;3.78;;;;;;;20.57;43.16;100741.66;5116828;28;20043;-72
2021/09/09 08:24:16;;;;;;;9.60;3.85;;;;;;;20.56;42.39;100737.25;5116851;28;20051;-73
2021/09/09 08:26:44;;;;;;;8.07;3.90;;;;;;;20.53;42.67;100733.94;5117035;28;20046;-69
2021/09/09 08:29:12;;;;;;;9.77;3.92;;;;;;;20.70;42.57;100741.34;5116737;28;20104;-70
2021/09/09 08:31:41;;;;;;;8.57;3.92;;;;;;;20.86;41.29;100736.19;5116280;28;20048;-74
2021/09/09 08:34:09;;;;;;;7.53;3.50;;;;;;;20.85;42.09;100739.03;5113719;28;20374;-71
2021/09/09 08:36:38;;;;;;;7.78;3.75;;;;;;;20.83;42.01;100735.59;5116433;28;20093;-71
2021/09/09 08:39:06;;;;;;;7.13;3.95;;;;;;;20.97;41.95;100739.72;5116399;28;20043;-71
2021/09/09 08:41:35;;;;;;;12.02;4.63;;;;;;;21.06;42.17;100733.41;5116772;28;20054;-72
2021/09/09 08:44:05;;;;;;;8.68;3.90;;;;;;;21.04;41.41;100730.84;5116575;28;20516;-73
2021/09/09 08:46:33;;;;;;;9.82;3.90;;;;;;;21.21;41.54;100726.47;5116402;28;20043;-73
2021/09/09 08:49:02;;;;;;;9.57;3.97;;;;;;;21.23;41.05;100723.59;5116117;28;20051;-72
2021/09/09 08:51:30;;;;;;;8.13;4.20;;;;;;;21.20;41.26;100732.91;5115900;28;20115;-75
2021/09/09 08:54:00;;;;;;;10.88;4.28;;;;;;;21.26;41.42;100720.63;5115821;28;20047;-74
2021/09/09 08:56:31;;;;;;;7.95;3.67;;;;;;;21.30;41.26;100730.19;5116012;28;20040;-73
2021/09/09 08:59:01;;;;;;;12.73;3.90;;;;;;;21.43;40.46;100718.00;5113319;28;20058;-74
2021/09/09 09:01:29;;;;;;;12.52;4.18;;;;;;;21.49;40.48;100719.22;5116131;28;20046;-72
2021/09/09 09:03:59;;;;;;;7.10;4.05;;;;;;;21.48;40.81;100712.09;5116276;28;20476;-73
2021/09/09 09:06:38;;;;;;;8.82;3.50;;;;;;;21.60;40.49;100713.59;5097936;28;20043;-71
2021/09/09 09:09:13;;;;;;;8.82;3.63;;;;;;;21.55;40.41;100707.78;5114300;28;20042;-73
2021/09/09 09:11:46;;;;;;;10.27;3.40;;;;;;;21.63;39.88;100710.59;5115638;28;20052;-73
2021/09/09 09:14:18;;;;;;;8.82;3.33;;;;;;;21.64;40.03;100698.72;5113025;28;20039;-73
2021/09/09 09:16:49;;;;;;;9.10;3.53;;;;;;;21.69;40.48;100707.25;5115576;28;20051;-73
2021/09/09 09:19:20;;;;;;;6.40;3.67;;;;;;;21.71;40.33;100710.69;5104172;28;20032;-74
2021/09/09 09:21:53;;;;;;;7.07;3.60;;;;;;;21.78;39.90;100699.19;5097709;28;20052;-74
2021/09/09 09:24:22;;;;;;;7.47;3.78;;;;;;;21.77;39.97;100697.50;5115505;28;20469;-78
2021/09/09 09:27:21;;;;;;;7.75;3.72;;;;;;;21.80;39.91;100698.03;5115477;28;20044;-75
2021/09/09 09:30:02;;;;;;;9.88;3.55;;;;;;;21.85;39.72;100689.44;5059898;28;20044;-75
2021/09/09 09:32:30;;;;;;;7.05;3.67;;;;;;;21.90;39.59;100696.09;5105396;28;20075;-73
2021/09/09 09:35:11;;;;;;;8.35;3.47;;;;;;;21.94;39.09;100688.50;5115292;28;20493;-74
2021/09/09 09:37:52;;;;;;;9.52;3.15;;;;;;;21.99;39.51;100691.59;5113045;28;20039;-75
2021/09/09 09:40:26;;;;;;;9.85;3.70;;;;;;;22.12;38.85;100689.38;5115949;28;20043;-78
2021/09/09 09:42:56;;;;;;;8.65;3.03;;;;;;;22.12;38.80;100692.09;5115337;28;20028;-75
2021/09/09 09:45:26;;;;;;;6.82;3.20;;;;;;;22.09;38.46;100676.09;5115070;28;20044;-72
2021/09/09 09:47:54;;;;;;;9.18;3.20;;;;;;;22.29;38.23;100687.63;5112721;28;20485;-71
2021/09/09 09:50:24;;;;;;;6.50;3.08;;;;;;;22.23;38.55;100681.00;5115256;28;20059;-72
2021/09/09 09:53:15;;;;;;;6.95;3.20;;;;;;;22.36;38.35;100677.00;5112817;28;20043;-78
2021/09/09 09:55:44;;;;;;;8.13;2.92;;;;;;;22.36;38.49;100679.72;5113822;28;20036;-76
2021/09/09 09:58:16;;;;;;;7.85;3.05;;;;;;;22.34;38.74;100674.44;5114816;28;20046;-74
2021/09/09 10:00:46;;;;;;;7.93;3.10;;;;;;;22.44;38.17;100677.06;5115091;28;20067;-71
2021/09/09 10:03:15;;;;;;;9.57;3.55;;;;;;;22.52;38.39;100667.13;5114748;28;20053;-74
2021/09/09 10:05:44;;;;;;;8.43;3.45;;;;;;;22.67;37.54;100658.34;5115200;28;20422;-74
2021/09/09 10:08:12;;;;;;;9.52;3.15;;;;;;;22.63;37.76;100657.84;5115090;28;20383;-71
2021/09/09 10:10:41;;;;;;;8.27;3.40;;;;;;;22.78;37.50;100664.41;5114691;28;20046;-78
2021/09/09 10:13:09;;;;;;;6.88;3.20;;;;;;;22.83;37.50;100664.75;5115150;28;20118;-76
2021/09/09 10:15:40;;;;;;;13.40;3.67;;;;;;;22.80;37.68;100665.09;5114949;28;20406;-76
2021/09/09 10:18:10;;;;;;;10.25;3.47;;;;;;;22.66;37.88;100656.66;5114944;28;20035;-77
2021/09/09 10:20:44;;;;;;;7.47;3.50;;;;;;;22.64;38.21;100654.09;5114412;28;20046;-75
2021/09/09 10:23:13;;;;;;;9.93;3.92;;;;;;;22.70;38.07;100652.63;5114352;28;20050;-85
2021/09/09 10:25:46;;;;;;;11.52;3.67;;;;;;;22.77;37.30;100643.63;5114914;28;20043;-82
2021/09/09 10:28:40;;;;;;;7.57;3.30;;;;;;;22.89;37.06;100654.28;5114737;28;20039;-83
2021/09/09 10:31:12;;;;;;;6.10;3.22;;;;;;;22.92;36.76;100646.66;5114416;28;20547;-82
2021/09/09 10:33:47;;;;;;;11.55;3.70;;;;;;;22.87;37.26;100645.41;5114240;28;20040;-78
2021/09/09 10:36:42;;;;;;;8.38;3.25;;;;;;;22.83;37.20;100643.00;5114346;28;20048;-88
2021/09/09 10:39:15;;;;;;;7.50;3.40;;;;;;;22.75;37.67;100645.66;5114077;28;20077;-80
2021/09/09 10:41:43;;;;;;;;;;;;;;;22.95;36.73;100637.28;5114864;28;20063;-86
2021/09/09 10:44:11;;;;;;;9.63;3.35;;;;;;;22.93;37.11;100633.91;5114138;28;19972;-81
2021/09/09 10:46:41;;;;;;;7.95;3.17;;;;;;;22.84;37.12;100633.00;5095857;28;20051;-78
2021/09/09 10:49:16;;;;;;;9.75;3.45;;;;;;;22.94;37.42;100630.16;5114050;28;20410;-83
2021/09/09 10:52:10;;;;;;;7.85;3.17;;;;;;;23.06;36.92;100629.69;5114219;28;20130;-86
2021/09/09 10:55:01;;;;;;;6.80;2.97;;;;;;;22.94;36.95;100620.13;5116132;28;20042;-86
2021/09/09 10:57:29;;;;;;;10.02;3.35;;;;;;;23.25;36.29;100625.00;5115637;28;20044;-90
2021/09/09 10:59:58;;;;;;;8.00;3.55;;;;;;;23.37;35.90;100613.66;5114155;28;20047;-86
2021/09/09 11:02:27;;;;;;;7.25;3.70;;;;;;;23.46;35.83;100610.97;5114701;28;20074;-86
2021/09/09 11:05:03;;;;;;;7.63;3.60;;;;;;;23.43;35.70;100612.97;5116974;28;20047;-91
2021/09/09 11:07:32;;;;;;;7.65;3.33;;;;;;;23.56;34.89;100612.50;5114252;28;20055;-85
2021/09/09 11:10:03;;;;;;;6.32;3.38;;;;;;;23.63;35.13;100612.72;5113799;28;20044;-78
2021/09/09 11:12:36;;;;;;;11.13;3.70;;;;;;;23.62;35.20;100600.13;5113862;28;20047;-79
2021/09/09 11:15:07;;;;;;;8.90;3.67;;;;;;;23.77;35.11;100598.44;5113598;28;20089;-75
2021/09/09 11:17:37;;;;;;;8.27;3.72;;;;;;;23.69;34.53;100609.31;5113571;28;20127;-76
2021/09/09 11:20:09;;;;;;;5.47;3.35;;;;;;;23.64;34.78;100592.63;5113947;28;20048;-75
2021/09/09 11:22:39;;;;;;;7.38;3.50;;;;;;;23.54;35.23;100591.91;5110193;28;20104;-74
2021/09/09 11:25:18;;;;;;;9.18;3.40;;;;;;;23.60;35.07;100580.38;5113332;28;20055;-72
2021/09/09 11:27:46;;;;;;;7.75;3.13;;;;;;;23.64;35.03;100576.28;5113387;28;20044;-74
2021/09/09 11:30:17;;;;;;;5.55;3.05;;;;;;;23.72;34.92;100573.56;5113368;28;20049;-75
2021/09/09 11:33:00;;;;;;;8.23;2.97;;;;;;;23.61;35.06;100572.03;5113033;28;20159;-74